Scoresby Research Inst, Victoria

2:41 AM AEST on September 20, 2014 (GMT +1000)
Vk3evl ferntree gully | Change Station
CLOSE
Current Station
Personal Weather Station
Location: Ferntree Gully, VICTORIA
Elevation: 312 ft
Nearby Weather Stations

Elev 312 ft 37.88 °S, 145.27 °E | Updated 5 seconds ago

Mostly Cloudy
Mostly Cloudy
48.6 °F
Feels Like 49 °F
N
0.0
Wind Variable Wind from North
Gusts 0.0 mph

Today
High -- | Low -- °F
--% Chance of Precip.
Yesterday
High -- | Low -- °F
Precip. -- in
6:12 AM 6:13 PM
Waning Crescent, 18% visible
Pressure 30.27 in
Visibility 6.2 miles
Clouds Few 2000 ft
Mostly Cloudy 4300 ft
Windchill 49 °F
Dew Point 43 °F
Humidity 82%
Rainfall 0.00 in
Snow Depth Not available.
UV 0.0 out of 12
Pollen Not available.
Air Quality Not available.
Flu Activity Not available.
METAR YMML 191630Z 21004KT 9999 FEW020 BKN043 08/06 Q1025 NOSIG

More Conditions Fewer Conditions

Pressure 30.27 in
Visibility 6.2 miles
Clouds Few 2000 ft
Mostly Cloudy 4300 ft
Windchill 49 °F
Dew Point 43 °F
Humidity 82%
Rainfall 0.00 in
Snow Depth Not available.
UV 0.0 out of 12
Pollen Not available.
Air Quality Not available.
Flu Activity Not available.
METAR YMML 191630Z 21004KT 9999 FEW020 BKN043 08/06 Q1025 NOSIG

More Conditions Fewer Conditions

10-Day Weather Forecast

Almanac

Astronomy

Sep. 20, 2014 Rise Set
Actual Time 6:12 AM AEST 6:13 PM AEST
Civil Twilight 5:46 AM AEST 6:39 PM AEST
Nautical Twilight 5:15 AM AEST 7:10 PM AEST
Astronomical Twilight 4:44 AM AEST 7:41 PM AEST
Moon 3:41 AM AEST (9/20) 2:37 PM AEST (9/20)
Length of Visible Light 12h 53m
Length of Day
12h 00m
Tomorrow will be 2m 25s longer.
Waning Crescent, 18% of the Moon is Illuminated
Sep 19
Waning Crescent
Sep 24
New
Oct 1
First Quarter
Oct 8
Full
Oct 15
Last Quarter

Yesterday's Extremes

Country Highs Country Lows

Community

WunderPhotos

Upload Photos

1,754,650 photos uploaded!

WunderBlogs® & News

By Dr. Jeff Masters
Director of Meteorology, Weather Underground
By Kari Strenfel
Meteorologist, Weather Underground
By Christopher C. Burt
Weather Historian, Weather Underground
September 19, 2014
September 19, 2014
September 19, 2014

Nearby

Snow Depth

Not available.

Earthquake Activity

City Distance Mag. Time & Date
No recent earthquake activity has been reported nearby.
Minimum magnitude displayed is 2.5.

Coastal Water Temperatures

Place Temperature
No Stations Reporting

Nearby Weather Stations